MA51 weather

Richie's Heliport
North Dartmouth, Massachusetts, United States

Public forecast

Using degrees Fahrenheit for public forecast. Weather courtesy of forecast.io.

METAR (pilot weather report)

Closest report is New Bedford Regional Airport, 4.3 nm (8.0 km) ENE. Retrieved 2019/07/21 19:53 UTC (59 minutes ago):

KEWB 211953Z 24011KT 10SM CLR 34/24 A2970 RMK AO2 SLP056 T03440244

TAF (pilot weather forecast)

Forecast is more than 6 hours old.

Closest forecast is Theodore Francis Green State Airport, 18.0 nm (33.4 km) WNW. Retrieved 2019/07/21 12:22 UTC (8 hours ago):

TAF KPVD 211120Z 2112/2212 VRB03KT P6SM FEW250 FM211600 29012KT P6SM SCT060 FM220100 30007KT P6SM SCT050 FM220800 33004KT P6SM SCT250